Imphal Airport
VEIM : now visible

Airfield :











YOU CAN JOIN US ON...

 
LOGIN :

Register | Disclaimer

   EN    FR    IT 

 









Legend :    VFR   Marginal VFR   IFR   Intensive IFR   Very Intensive IFR
Visi :
Ceiling :
>= 8 km
>= 3000ft
5 to 8 km
1000 to 3000 ft
1500m to 5 km
500 to 1000 ft
800 to 1500m
200 to 500 ft
< 800m
< 200 ft
Symbols :   Thunderstorms  Fog  Heavy snow  Heavy precipitations  Wind > 20 kt






- Airport Elevation : 2540 ft
- IATA code : IMF


VEIM - Imphal

CURRENT METAR :
  • 190700Z 03002KT 4000 HZ FEW018 21/11 Q1016 NOSIG

EXPIRED METARs :
  • 190630Z 14004KT 3000 HZ FEW018 20/12 Q1016 NOSIG
  • 190600Z 18002KT 2500 HZ FEW018 19/12 Q1017 NOSIG
  • 190530Z 08002KT 2500 HZ FEW018 17/11 Q1018 NOSIG
  • 190500Z 14002KT 2000 HZ FEW018 16/11 Q1019 BECMG 2500 HZ
  • 190430Z 09002KT 2000 BR FEW018 15/11 Q1019 NOSIG

TAF TAF VEIM
Valid from the 19 at 06:00 until the 19 at 15:00 UTC


190500Z 1906/1915 09008KT 2000 BR FEW020 SCT100
BECMG 1908/1910 4000 HZ
BECMG 1913/1915 00000KT 3000 BR



MET'MAP, your aeronautical weather chart ! - Copyright ORBIFLY December 2007 - Disclaimer

ORBIFLY MET'MAP TEAM :

Programming & Development : Alexandra Zaïnal
Concept & original design : Baudouin d'Aumeries
Assistance for programming : Marc-Olivier Méhu
Technical & hardware support : Manuel Goepfert

Contact : metmap@orbifly.com




SOURCES & CREDITS :

   NOAA       Earth
Advisory